sensor_id;sensor_type;location;lat;lon;timestamp;P1;durP1;ratioP1;P2;durP2;ratioP2
66669;SDS011;53568;52.164;4.472;2022-08-26T00:00:55;2.89;;;2.34;;
66669;SDS011;53568;52.164;4.472;2022-08-26T00:03:22;2.51;;;2.07;;
66669;SDS011;53568;52.164;4.472;2022-08-26T00:05:49;2.34;;;1.99;;
66669;SDS011;53568;52.164;4.472;2022-08-26T00:08:17;2.61;;;2.20;;
66669;SDS011;53568;52.164;4.472;2022-08-26T00:10:46;2.16;;;1.83;;
66669;SDS011;53568;52.164;4.472;2022-08-26T00:13:15;2.50;;;2.11;;
66669;SDS011;53568;52.164;4.472;2022-08-26T00:15:42;2.18;;;1.88;;
66669;SDS011;53568;52.164;4.472;2022-08-26T00:18:13;2.20;;;1.88;;
66669;SDS011;53568;52.164;4.472;2022-08-26T00:20:39;2.54;;;2.14;;
66669;SDS011;53568;52.164;4.472;2022-08-26T00:23:05;2.36;;;1.99;;
66669;SDS011;53568;52.164;4.472;2022-08-26T00:25:32;2.32;;;1.98;;
66669;SDS011;53568;52.164;4.472;2022-08-26T00:27:58;2.31;;;1.94;;
66669;SDS011;53568;52.164;4.472;2022-08-26T00:30:25;2.68;;;2.20;;
66669;SDS011;53568;52.164;4.472;2022-08-26T00:32:58;2.49;;;2.02;;
66669;SDS011;53568;52.164;4.472;2022-08-26T00:35:25;2.60;;;2.14;;
66669;SDS011;53568;52.164;4.472;2022-08-26T00:37:52;2.21;;;1.81;;
66669;SDS011;53568;52.164;4.472;2022-08-26T00:40:21;2.28;;;1.84;;
66669;SDS011;53568;52.164;4.472;2022-08-26T00:42:51;2.42;;;1.92;;
66669;SDS011;53568;52.164;4.472;2022-08-26T00:45:16;2.41;;;1.88;;
66669;SDS011;53568;52.164;4.472;2022-08-26T00:47:44;2.45;;;1.89;;
66669;SDS011;53568;52.164;4.472;2022-08-26T00:50:14;2.54;;;1.92;;
66669;SDS011;53568;52.164;4.472;2022-08-26T00:52:43;2.84;;;2.17;;
66669;SDS011;53568;52.164;4.472;2022-08-26T00:55:12;2.39;;;1.84;;
66669;SDS011;53568;52.164;4.472;2022-08-26T00:57:44;2.56;;;1.99;;
66669;SDS011;53568;52.164;4.472;2022-08-26T01:00:14;2.64;;;2.04;;
66669;SDS011;53568;52.164;4.472;2022-08-26T01:02:45;2.68;;;2.10;;
66669;SDS011;53568;52.164;4.472;2022-08-26T01:05:13;2.34;;;1.84;;
66669;SDS011;53568;52.164;4.472;2022-08-26T01:07:42;2.69;;;2.06;;
66669;SDS011;53568;52.164;4.472;2022-08-26T01:10:18;3.01;;;2.28;;
66669;SDS011;53568;52.164;4.472;2022-08-26T01:12:55;2.60;;;1.96;;
66669;SDS011;53568;52.164;4.472;2022-08-26T01:15:27;3.01;;;2.32;;
66669;SDS011;53568;52.164;4.472;2022-08-26T01:18:04;2.55;;;1.99;;
66669;SDS011;53568;52.164;4.472;2022-08-26T01:23:40;2.25;;;1.76;;
66669;SDS011;53568;52.164;4.472;2022-08-26T01:26:23;2.49;;;1.95;;
66669;SDS011;53568;52.164;4.472;2022-08-26T01:28:55;2.32;;;1.85;;
66669;SDS011;53568;52.164;4.472;2022-08-26T01:35:14;2.31;;;1.77;;
66669;SDS011;53568;52.164;4.472;2022-08-26T01:37:42;2.43;;;1.87;;
66669;SDS011;53568;52.164;4.472;2022-08-26T01:40:13;2.82;;;2.16;;
66669;SDS011;53568;52.164;4.472;2022-08-26T01:42:51;2.58;;;1.91;;
66669;SDS011;53568;52.164;4.472;2022-08-26T01:45:22;2.85;;;2.10;;
66669;SDS011;53568;52.164;4.472;2022-08-26T01:47:58;2.43;;;1.78;;
66669;SDS011;53568;52.164;4.472;2022-08-26T01:54:30;2.43;;;1.78;;
66669;SDS011;53568;52.164;4.472;2022-08-26T01:56:57;2.93;;;2.13;;
66669;SDS011;53568;52.164;4.472;2022-08-26T01:59:23;2.90;;;2.09;;
66669;SDS011;53568;52.164;4.472;2022-08-26T02:01:50;2.50;;;1.81;;
66669;SDS011;53568;52.164;4.472;2022-08-26T02:06:46;2.40;;;1.74;;
66669;SDS011;53568;52.164;4.472;2022-08-26T02:09:13;2.47;;;1.75;;
66669;SDS011;53568;52.164;4.472;2022-08-26T02:11:42;2.69;;;1.87;;
66669;SDS011;53568;52.164;4.472;2022-08-26T02:14:15;2.95;;;2.06;;
66669;SDS011;53568;52.164;4.472;2022-08-26T02:16:50;2.73;;;1.92;;
66669;SDS011;53568;52.164;4.472;2022-08-26T02:19:19;2.76;;;1.96;;
66669;SDS011;53568;52.164;4.472;2022-08-26T02:21:47;2.59;;;1.87;;
66669;SDS011;53568;52.164;4.472;2022-08-26T02:24:17;2.95;;;2.12;;
66669;SDS011;53568;52.164;4.472;2022-08-26T02:26:48;2.86;;;2.02;;
66669;SDS011;53568;52.164;4.472;2022-08-26T02:29:19;2.54;;;1.83;;
66669;SDS011;53568;52.164;4.472;2022-08-26T02:32:13;2.34;;;1.72;;
66669;SDS011;53568;52.164;4.472;2022-08-26T02:34:38;2.45;;;1.81;;
66669;SDS011;53568;52.164;4.472;2022-08-26T02:37:07;2.07;;;1.52;;
66669;SDS011;53568;52.164;4.472;2022-08-26T02:39:35;2.09;;;1.53;;
66669;SDS011;53568;52.164;4.472;2022-08-26T02:42:03;2.24;;;1.65;;
66669;SDS011;53568;52.164;4.472;2022-08-26T02:44:29;2.17;;;1.60;;
66669;SDS011;53568;52.164;4.472;2022-08-26T02:46:56;2.21;;;1.64;;
66669;SDS011;53568;52.164;4.472;2022-08-26T02:49:26;1.91;;;1.46;;
66669;SDS011;53568;52.164;4.472;2022-08-26T02:51:52;2.03;;;1.57;;
66669;SDS011;53568;52.164;4.472;2022-08-26T02:57:48;1.68;;;1.31;;
66669;SDS011;53568;52.164;4.472;2022-08-26T03:00:16;1.85;;;1.44;;
66669;SDS011;53568;52.164;4.472;2022-08-26T03:02:42;1.62;;;1.29;;
66669;SDS011;53568;52.164;4.472;2022-08-26T03:05:08;1.61;;;1.28;;
66669;SDS011;53568;52.164;4.472;2022-08-26T03:07:38;2.12;;;1.64;;
66669;SDS011;53568;52.164;4.472;2022-08-26T03:10:04;2.06;;;1.57;;
66669;SDS011;53568;52.164;4.472;2022-08-26T03:12:34;1.83;;;1.37;;
66669;SDS011;53568;52.164;4.472;2022-08-26T03:15:01;1.67;;;1.23;;
66669;SDS011;53568;52.164;4.472;2022-08-26T03:17:27;1.85;;;1.38;;
66669;SDS011;53568;52.164;4.472;2022-08-26T03:19:54;2.08;;;1.55;;
66669;SDS011;53568;52.164;4.472;2022-08-26T03:22:20;1.99;;;1.48;;
66669;SDS011;53568;52.164;4.472;2022-08-26T03:24:46;2.14;;;1.58;;
66669;SDS011;53568;52.164;4.472;2022-08-26T03:27:13;1.82;;;1.36;;
66669;SDS011;53568;52.164;4.472;2022-08-26T03:29:40;1.85;;;1.39;;
66669;SDS011;53568;52.164;4.472;2022-08-26T03:32:27;1.60;;;1.21;;
66669;SDS011;53568;52.164;4.472;2022-08-26T03:34:53;1.45;;;1.10;;
66669;SDS011;53568;52.164;4.472;2022-08-26T03:37:20;1.81;;;1.37;;
66669;SDS011;53568;52.164;4.472;2022-08-26T03:39:46;1.93;;;1.43;;
66669;SDS011;53568;52.164;4.472;2022-08-26T03:42:12;2.07;;;1.52;;
66669;SDS011;53568;52.164;4.472;2022-08-26T03:44:40;1.80;;;1.33;;
66669;SDS011;53568;52.164;4.472;2022-08-26T03:47:09;1.80;;;1.36;;
66669;SDS011;53568;52.164;4.472;2022-08-26T03:49:37;2.04;;;1.51;;
66669;SDS011;53568;52.164;4.472;2022-08-26T03:52:04;2.23;;;1.63;;
66669;SDS011;53568;52.164;4.472;2022-08-26T03:54:34;2.23;;;1.60;;
66669;SDS011;53568;52.164;4.472;2022-08-26T03:57:00;2.36;;;1.67;;
66669;SDS011;53568;52.164;4.472;2022-08-26T03:59:26;2.47;;;1.71;;
66669;SDS011;53568;52.164;4.472;2022-08-26T04:01:55;2.53;;;1.76;;
66669;SDS011;53568;52.164;4.472;2022-08-26T04:04:23;2.06;;;1.46;;
66669;SDS011;53568;52.164;4.472;2022-08-26T04:06:48;2.17;;;1.57;;
66669;SDS011;53568;52.164;4.472;2022-08-26T04:09:18;1.96;;;1.43;;
66669;SDS011;53568;52.164;4.472;2022-08-26T04:11:45;1.75;;;1.29;;
66669;SDS011;53568;52.164;4.472;2022-08-26T04:14:12;1.89;;;1.39;;
66669;SDS011;53568;52.164;4.472;2022-08-26T04:16:41;1.80;;;1.35;;
66669;SDS011;53568;52.164;4.472;2022-08-26T04:19:08;1.77;;;1.34;;
66669;SDS011;53568;52.164;4.472;2022-08-26T04:21:34;2.06;;;1.55;;
66669;SDS011;53568;52.164;4.472;2022-08-26T04:24:03;1.99;;;1.50;;
66669;SDS011;53568;52.164;4.472;2022-08-26T04:26:30;1.96;;;1.47;;
66669;SDS011;53568;52.164;4.472;2022-08-26T04:29:09;2.52;;;1.88;;
66669;SDS011;53568;52.164;4.472;2022-08-26T04:31:48;2.58;;;1.92;;
66669;SDS011;53568;52.164;4.472;2022-08-26T04:34:17;2.60;;;1.94;;
66669;SDS011;53568;52.164;4.472;2022-08-26T04:36:43;2.88;;;2.06;;
66669;SDS011;53568;52.164;4.472;2022-08-26T04:39:12;2.92;;;2.03;;
66669;SDS011;53568;52.164;4.472;2022-08-26T04:41:41;2.94;;;2.05;;
66669;SDS011;53568;52.164;4.472;2022-08-26T04:44:08;2.72;;;1.92;;
66669;SDS011;53568;52.164;4.472;2022-08-26T04:46:34;2.63;;;1.86;;
66669;SDS011;53568;52.164;4.472;2022-08-26T04:49:01;2.72;;;1.92;;
66669;SDS011;53568;52.164;4.472;2022-08-26T04:51:30;2.66;;;1.87;;
66669;SDS011;53568;52.164;4.472;2022-08-26T04:53:57;2.98;;;2.08;;
66669;SDS011;53568;52.164;4.472;2022-08-26T04:56:24;2.98;;;2.06;;
66669;SDS011;53568;52.164;4.472;2022-08-26T04:59:05;3.22;;;2.17;;
66669;SDS011;53568;52.164;4.472;2022-08-26T05:01:32;2.97;;;1.99;;
66669;SDS011;53568;52.164;4.472;2022-08-26T05:03:58;2.53;;;1.73;;
66669;SDS011;53568;52.164;4.472;2022-08-26T05:06:26;2.90;;;1.98;;
66669;SDS011;53568;52.164;4.472;2022-08-26T05:08:55;3.13;;;2.11;;
66669;SDS011;53568;52.164;4.472;2022-08-26T05:11:20;2.94;;;1.98;;
66669;SDS011;53568;52.164;4.472;2022-08-26T05:13:46;2.78;;;1.92;;
66669;SDS011;53568;52.164;4.472;2022-08-26T05:16:15;2.87;;;2.01;;
66669;SDS011;53568;52.164;4.472;2022-08-26T05:18:45;2.64;;;1.83;;
66669;SDS011;53568;52.164;4.472;2022-08-26T05:21:15;2.82;;;1.94;;
66669;SDS011;53568;52.164;4.472;2022-08-26T05:23:50;2.77;;;1.89;;
66669;SDS011;53568;52.164;4.472;2022-08-26T05:26:17;2.56;;;1.77;;
66669;SDS011;53568;52.164;4.472;2022-08-26T05:28:46;2.79;;;1.90;;
66669;SDS011;53568;52.164;4.472;2022-08-26T05:31:16;2.38;;;1.64;;
66669;SDS011;53568;52.164;4.472;2022-08-26T05:33:46;2.35;;;1.64;;
66669;SDS011;53568;52.164;4.472;2022-08-26T05:36:22;2.52;;;1.75;;
66669;SDS011;53568;52.164;4.472;2022-08-26T05:38:52;2.67;;;1.82;;
66669;SDS011;53568;52.164;4.472;2022-08-26T05:41:19;2.51;;;1.72;;
66669;SDS011;53568;52.164;4.472;2022-08-26T05:43:53;2.20;;;1.54;;
66669;SDS011;53568;52.164;4.472;2022-08-26T05:46:21;2.32;;;1.60;;
66669;SDS011;53568;52.164;4.472;2022-08-26T05:48:48;2.38;;;1.60;;
66669;SDS011;53568;52.164;4.472;2022-08-26T05:51:17;2.32;;;1.56;;
66669;SDS011;53568;52.164;4.472;2022-08-26T05:53:43;2.81;;;1.88;;
66669;SDS011;53568;52.164;4.472;2022-08-26T05:56:12;2.47;;;1.65;;
66669;SDS011;53568;52.164;4.472;2022-08-26T05:58:41;3.06;;;2.04;;
66669;SDS011;53568;52.164;4.472;2022-08-26T06:03:36;3.20;;;2.14;;
66669;SDS011;53568;52.164;4.472;2022-08-26T06:06:04;2.52;;;1.68;;
66669;SDS011;53568;52.164;4.472;2022-08-26T06:08:31;3.05;;;2.05;;
66669;SDS011;53568;52.164;4.472;2022-08-26T06:11:01;2.25;;;1.51;;
66669;SDS011;53568;52.164;4.472;2022-08-26T06:13:37;2.59;;;1.74;;
66669;SDS011;53568;52.164;4.472;2022-08-26T06:16:06;2.86;;;1.93;;
66669;SDS011;53568;52.164;4.472;2022-08-26T06:22:05;2.42;;;1.66;;
66669;SDS011;53568;52.164;4.472;2022-08-26T06:24:58;2.49;;;1.70;;
66669;SDS011;53568;52.164;4.472;2022-08-26T06:27:45;2.37;;;1.62;;
66669;SDS011;53568;52.164;4.472;2022-08-26T06:30:11;2.20;;;1.52;;
66669;SDS011;53568;52.164;4.472;2022-08-26T06:32:40;2.45;;;1.70;;
66669;SDS011;53568;52.164;4.472;2022-08-26T06:35:08;2.46;;;1.71;;
66669;SDS011;53568;52.164;4.472;2022-08-26T06:37:34;2.25;;;1.52;;
66669;SDS011;53568;52.164;4.472;2022-08-26T06:39:59;2.62;;;1.76;;
66669;SDS011;53568;52.164;4.472;2022-08-26T06:42:31;2.56;;;1.73;;
66669;SDS011;53568;52.164;4.472;2022-08-26T06:44:57;2.58;;;1.74;;
66669;SDS011;53568;52.164;4.472;2022-08-26T06:47:25;2.59;;;1.74;;
66669;SDS011;53568;52.164;4.472;2022-08-26T06:49:51;2.44;;;1.65;;
66669;SDS011;53568;52.164;4.472;2022-08-26T06:52:19;3.00;;;2.00;;
66669;SDS011;53568;52.164;4.472;2022-08-26T06:54:47;2.78;;;1.84;;
66669;SDS011;53568;52.164;4.472;2022-08-26T06:57:16;2.66;;;1.76;;
66669;SDS011;53568;52.164;4.472;2022-08-26T07:03:08;2.55;;;1.71;;
66669;SDS011;53568;52.164;4.472;2022-08-26T07:05:37;2.56;;;1.70;;
66669;SDS011;53568;52.164;4.472;2022-08-26T07:08:06;2.58;;;1.73;;
66669;SDS011;53568;52.164;4.472;2022-08-26T07:10:34;2.21;;;1.49;;
66669;SDS011;53568;52.164;4.472;2022-08-26T07:13:00;2.28;;;1.54;;
66669;SDS011;53568;52.164;4.472;2022-08-26T07:15:29;2.43;;;1.62;;
66669;SDS011;53568;52.164;4.472;2022-08-26T07:17:54;3.18;;;2.13;;
66669;SDS011;53568;52.164;4.472;2022-08-26T07:20:23;2.29;;;1.55;;
66669;SDS011;53568;52.164;4.472;2022-08-26T07:22:52;2.74;;;1.84;;
66669;SDS011;53568;52.164;4.472;2022-08-26T07:25:17;2.39;;;1.62;;
66669;SDS011;53568;52.164;4.472;2022-08-26T07:27:46;2.11;;;1.43;;
66669;SDS011;53568;52.164;4.472;2022-08-26T07:30:12;2.64;;;1.77;;
66669;SDS011;53568;52.164;4.472;2022-08-26T07:32:41;2.34;;;1.57;;
66669;SDS011;53568;52.164;4.472;2022-08-26T07:35:07;2.14;;;1.45;;
66669;SDS011;53568;52.164;4.472;2022-08-26T07:37:36;1.98;;;1.36;;
66669;SDS011;53568;52.164;4.472;2022-08-26T07:40:04;1.71;;;1.17;;
66669;SDS011;53568;52.164;4.472;2022-08-26T07:42:30;2.04;;;1.40;;
66669;SDS011;53568;52.164;4.472;2022-08-26T07:48:18;1.73;;;1.19;;
66669;SDS011;53568;52.164;4.472;2022-08-26T07:50:44;1.87;;;1.29;;
66669;SDS011;53568;52.164;4.472;2022-08-26T07:53:10;1.84;;;1.27;;
66669;SDS011;53568;52.164;4.472;2022-08-26T07:59:30;1.58;;;1.09;;
66669;SDS011;53568;52.164;4.472;2022-08-26T08:01:58;1.72;;;1.21;;
66669;SDS011;53568;52.164;4.472;2022-08-26T08:07:46;1.69;;;1.20;;
66669;SDS011;53568;52.164;4.472;2022-08-26T08:10:22;1.37;;;0.98;;
66669;SDS011;53568;52.164;4.472;2022-08-26T08:12:49;1.73;;;1.22;;
66669;SDS011;53568;52.164;4.472;2022-08-26T08:15:19;1.36;;;0.96;;
66669;SDS011;53568;52.164;4.472;2022-08-26T08:21:28;1.68;;;1.19;;
66669;SDS011;53568;52.164;4.472;2022-08-26T08:23:55;2.09;;;1.46;;
66669;SDS011;53568;52.164;4.472;2022-08-26T08:26:22;1.66;;;1.17;;
66669;SDS011;53568;52.164;4.472;2022-08-26T08:32:19;1.98;;;1.41;;
66669;SDS011;53568;52.164;4.472;2022-08-26T08:34:45;1.68;;;1.20;;
66669;SDS011;53568;52.164;4.472;2022-08-26T08:37:11;1.58;;;1.12;;
66669;SDS011;53568;52.164;4.472;2022-08-26T08:39:37;1.84;;;1.30;;
66669;SDS011;53568;52.164;4.472;2022-08-26T08:44:57;2.05;;;1.48;;
66669;SDS011;53568;52.164;4.472;2022-08-26T08:47:38;2.40;;;1.74;;
66669;SDS011;53568;52.164;4.472;2022-08-26T08:53:49;2.23;;;1.61;;
66669;SDS011;53568;52.164;4.472;2022-08-26T08:56:39;2.73;;;2.01;;
66669;SDS011;53568;52.164;4.472;2022-08-26T08:59:21;2.52;;;1.85;;
66669;SDS011;53568;52.164;4.472;2022-08-26T09:02:04;2.62;;;1.93;;
66669;SDS011;53568;52.164;4.472;2022-08-26T09:08:09;3.05;;;2.31;;
66669;SDS011;53568;52.164;4.472;2022-08-26T09:14:39;2.75;;;2.14;;
66669;SDS011;53568;52.164;4.472;2022-08-26T09:17:20;2.47;;;1.94;;
66669;SDS011;53568;52.164;4.472;2022-08-26T09:19:53;2.51;;;1.95;;
66669;SDS011;53568;52.164;4.472;2022-08-26T09:22:37;2.23;;;1.76;;
66669;SDS011;53568;52.164;4.472;2022-08-26T09:25:08;2.14;;;1.72;;
66669;SDS011;53568;52.164;4.472;2022-08-26T09:27:45;2.39;;;1.93;;
66669;SDS011;53568;52.164;4.472;2022-08-26T09:30:14;2.22;;;1.80;;
66669;SDS011;53568;52.164;4.472;2022-08-26T09:33:07;2.25;;;1.87;;
66669;SDS011;53568;52.164;4.472;2022-08-26T09:35:35;2.19;;;1.81;;
66669;SDS011;53568;52.164;4.472;2022-08-26T09:38:31;1.86;;;1.58;;
66669;SDS011;53568;52.164;4.472;2022-08-26T09:45:34;2.01;;;1.67;;
66669;SDS011;53568;52.164;4.472;2022-08-26T09:48:03;2.15;;;1.76;;
66669;SDS011;53568;52.164;4.472;2022-08-26T09:50:35;2.23;;;1.82;;
66669;SDS011;53568;52.164;4.472;2022-08-26T09:57:16;1.98;;;1.64;;
66669;SDS011;53568;52.164;4.472;2022-08-26T09:59:57;2.20;;;1.84;;
66669;SDS011;53568;52.164;4.472;2022-08-26T10:05:56;2.20;;;1.84;;
66669;SDS011;53568;52.164;4.472;2022-08-26T10:08:45;1.97;;;1.65;;
66669;SDS011;53568;52.164;4.472;2022-08-26T10:15:17;2.40;;;1.99;;
66669;SDS011;53568;52.164;4.472;2022-08-26T10:20:40;1.79;;;1.50;;
66669;SDS011;53568;52.164;4.472;2022-08-26T10:30:09;1.96;;;1.63;;
66669;SDS011;53568;52.164;4.472;2022-08-26T10:38:39;2.12;;;1.70;;
66669;SDS011;53568;52.164;4.472;2022-08-26T10:41:10;2.06;;;1.63;;
66669;SDS011;53568;52.164;4.472;2022-08-26T11:08:47;2.19;;;1.72;;
66669;SDS011;53568;52.164;4.472;2022-08-26T11:14:57;2.20;;;1.73;;
66669;SDS011;53568;52.164;4.472;2022-08-26T11:17:52;1.93;;;1.53;;
66669;SDS011;53568;52.164;4.472;2022-08-26T11:30:08;2.51;;;1.92;;
66669;SDS011;53568;52.164;4.472;2022-08-26T11:33:08;2.41;;;1.84;;
66669;SDS011;53568;52.164;4.472;2022-08-26T11:38:02;2.56;;;1.97;;
66669;SDS011;53568;52.164;4.472;2022-08-26T11:40:56;2.25;;;1.72;;
66669;SDS011;53568;52.164;4.472;2022-08-26T11:43:35;2.15;;;1.65;;
66669;SDS011;53568;52.164;4.472;2022-08-26T11:46:05;2.23;;;1.70;;
66669;SDS011;53568;52.164;4.472;2022-08-26T11:48:39;2.65;;;2.05;;
66669;SDS011;53568;52.164;4.472;2022-08-26T11:51:08;2.20;;;1.69;;
66669;SDS011;53568;52.164;4.472;2022-08-26T11:53:40;2.25;;;1.76;;
66669;SDS011;53568;52.164;4.472;2022-08-26T11:58:57;2.03;;;1.58;;
66669;SDS011;53568;52.164;4.472;2022-08-26T12:01:30;1.83;;;1.43;;
66669;SDS011;53568;52.164;4.472;2022-08-26T12:04:01;2.54;;;1.97;;
66669;SDS011;53568;52.164;4.472;2022-08-26T12:06:33;2.13;;;1.67;;
66669;SDS011;53568;52.164;4.472;2022-08-26T12:09:05;2.16;;;1.69;;
66669;SDS011;53568;52.164;4.472;2022-08-26T12:11:36;2.34;;;1.84;;
66669;SDS011;53568;52.164;4.472;2022-08-26T12:14:05;2.32;;;1.81;;
66669;SDS011;53568;52.164;4.472;2022-08-26T12:16:42;2.14;;;1.66;;
66669;SDS011;53568;52.164;4.472;2022-08-26T12:19:22;2.39;;;1.85;;
66669;SDS011;53568;52.164;4.472;2022-08-26T12:21:57;2.25;;;1.79;;
66669;SDS011;53568;52.164;4.472;2022-08-26T12:24:31;2.33;;;1.86;;
66669;SDS011;53568;52.164;4.472;2022-08-26T12:27:05;2.28;;;1.78;;
66669;SDS011;53568;52.164;4.472;2022-08-26T12:30:00;2.28;;;1.76;;
66669;SDS011;53568;52.164;4.472;2022-08-26T12:32:31;2.23;;;1.72;;
66669;SDS011;53568;52.164;4.472;2022-08-26T12:34:59;2.34;;;1.80;;
66669;SDS011;53568;52.164;4.472;2022-08-26T12:37:28;2.34;;;1.84;;
66669;SDS011;53568;52.164;4.472;2022-08-26T12:43:00;1.98;;;1.59;;
66669;SDS011;53568;52.164;4.472;2022-08-26T12:45:42;2.11;;;1.71;;
66669;SDS011;53568;52.164;4.472;2022-08-26T12:48:30;2.27;;;1.82;;
66669;SDS011;53568;52.164;4.472;2022-08-26T12:51:00;2.43;;;1.91;;
66669;SDS011;53568;52.164;4.472;2022-08-26T12:53:31;2.35;;;1.87;;
66669;SDS011;53568;52.164;4.472;2022-08-26T12:56:03;2.28;;;1.85;;
66669;SDS011;53568;52.164;4.472;2022-08-26T12:59:05;2.47;;;1.97;;
66669;SDS011;53568;52.164;4.472;2022-08-26T13:01:49;2.34;;;1.85;;
66669;SDS011;53568;52.164;4.472;2022-08-26T13:07:26;2.09;;;1.69;;
66669;SDS011;53568;52.164;4.472;2022-08-26T13:09:56;2.31;;;1.88;;
66669;SDS011;53568;52.164;4.472;2022-08-26T13:14:52;2.26;;;1.83;;
66669;SDS011;53568;52.164;4.472;2022-08-26T13:17:20;2.48;;;1.93;;
66669;SDS011;53568;52.164;4.472;2022-08-26T13:19:47;2.80;;;2.18;;
66669;SDS011;53568;52.164;4.472;2022-08-26T13:22:16;2.79;;;2.21;;
66669;SDS011;53568;52.164;4.472;2022-08-26T13:24:48;2.39;;;1.96;;
66669;SDS011;53568;52.164;4.472;2022-08-26T13:27:22;2.13;;;1.75;;
66669;SDS011;53568;52.164;4.472;2022-08-26T13:29:53;2.46;;;2.02;;
66669;SDS011;53568;52.164;4.472;2022-08-26T13:32:21;2.12;;;1.75;;
66669;SDS011;53568;52.164;4.472;2022-08-26T13:34:47;2.15;;;1.79;;
66669;SDS011;53568;52.164;4.472;2022-08-26T13:37:14;2.22;;;1.83;;
66669;SDS011;53568;52.164;4.472;2022-08-26T13:43:02;2.01;;;1.71;;
66669;SDS011;53568;52.164;4.472;2022-08-26T13:45:27;1.99;;;1.68;;
66669;SDS011;53568;52.164;4.472;2022-08-26T13:47:53;2.10;;;1.78;;
66669;SDS011;53568;52.164;4.472;2022-08-26T13:53:40;2.16;;;1.83;;
66669;SDS011;53568;52.164;4.472;2022-08-26T13:56:06;2.20;;;1.87;;
66669;SDS011;53568;52.164;4.472;2022-08-26T13:58:31;2.33;;;1.96;;
66669;SDS011;53568;52.164;4.472;2022-08-26T14:01:00;2.28;;;1.92;;
66669;SDS011;53568;52.164;4.472;2022-08-26T14:03:29;2.25;;;1.92;;
66669;SDS011;53568;52.164;4.472;2022-08-26T14:05:54;2.10;;;1.81;;
66669;SDS011;53568;52.164;4.472;2022-08-26T14:08:20;1.95;;;1.70;;
66669;SDS011;53568;52.164;4.472;2022-08-26T14:10:50;2.01;;;1.78;;
66669;SDS011;53568;52.164;4.472;2022-08-26T14:13:15;2.10;;;1.86;;
66669;SDS011;53568;52.164;4.472;2022-08-26T14:15:45;2.17;;;1.90;;
66669;SDS011;53568;52.164;4.472;2022-08-26T14:18:12;2.37;;;2.04;;
66669;SDS011;53568;52.164;4.472;2022-08-26T14:20:41;2.34;;;2.04;;
66669;SDS011;53568;52.164;4.472;2022-08-26T14:27:13;2.28;;;2.04;;
66669;SDS011;53568;52.164;4.472;2022-08-26T14:29:41;2.26;;;2.02;;
66669;SDS011;53568;52.164;4.472;2022-08-26T14:35:29;2.24;;;2.04;;
66669;SDS011;53568;52.164;4.472;2022-08-26T14:38:04;2.20;;;1.97;;
66669;SDS011;53568;52.164;4.472;2022-08-26T14:44:05;2.28;;;2.05;;
66669;SDS011;53568;52.164;4.472;2022-08-26T14:46:46;1.94;;;1.80;;
66669;SDS011;53568;52.164;4.472;2022-08-26T14:53:13;2.02;;;1.86;;
66669;SDS011;53568;52.164;4.472;2022-08-26T14:55:57;2.10;;;1.90;;
66669;SDS011;53568;52.164;4.472;2022-08-26T14:58:23;2.14;;;1.94;;
66669;SDS011;53568;52.164;4.472;2022-08-26T15:04:11;2.04;;;1.88;;
66669;SDS011;53568;52.164;4.472;2022-08-26T15:06:38;1.94;;;1.81;;
66669;SDS011;53568;52.164;4.472;2022-08-26T15:09:14;2.14;;;1.99;;
66669;SDS011;53568;52.164;4.472;2022-08-26T15:11:40;1.96;;;1.80;;
66669;SDS011;53568;52.164;4.472;2022-08-26T15:14:09;2.16;;;2.01;;
66669;SDS011;53568;52.164;4.472;2022-08-26T15:16:35;2.08;;;1.91;;
66669;SDS011;53568;52.164;4.472;2022-08-26T15:19:04;2.09;;;1.93;;
66669;SDS011;53568;52.164;4.472;2022-08-26T15:25:02;2.48;;;2.24;;
66669;SDS011;53568;52.164;4.472;2022-08-26T15:27:39;2.27;;;2.07;;
66669;SDS011;53568;52.164;4.472;2022-08-26T15:33:26;2.14;;;1.98;;
66669;SDS011;53568;52.164;4.472;2022-08-26T15:35:52;2.22;;;2.00;;
66669;SDS011;53568;52.164;4.472;2022-08-26T15:38:18;2.22;;;2.02;;
66669;SDS011;53568;52.164;4.472;2022-08-26T15:40:46;2.49;;;2.31;;
66669;SDS011;53568;52.164;4.472;2022-08-26T15:43:14;2.10;;;1.96;;
66669;SDS011;53568;52.164;4.472;2022-08-26T15:45:40;2.23;;;2.11;;
66669;SDS011;53568;52.164;4.472;2022-08-26T15:48:08;2.61;;;2.49;;
66669;SDS011;53568;52.164;4.472;2022-08-26T15:53:57;2.41;;;2.33;;
66669;SDS011;53568;52.164;4.472;2022-08-26T15:56:33;2.24;;;2.17;;
66669;SDS011;53568;52.164;4.472;2022-08-26T15:59:01;2.61;;;2.52;;
66669;SDS011;53568;52.164;4.472;2022-08-26T16:01:29;2.55;;;2.48;;
66669;SDS011;53568;52.164;4.472;2022-08-26T16:03:56;2.42;;;2.33;;
66669;SDS011;53568;52.164;4.472;2022-08-26T16:06:30;2.63;;;2.53;;
66669;SDS011;53568;52.164;4.472;2022-08-26T16:09:03;2.37;;;2.28;;
66669;SDS011;53568;52.164;4.472;2022-08-26T16:11:29;2.57;;;2.48;;
66669;SDS011;53568;52.164;4.472;2022-08-26T16:17:17;2.75;;;2.67;;
66669;SDS011;53568;52.164;4.472;2022-08-26T16:19:42;2.55;;;2.47;;
66669;SDS011;53568;52.164;4.472;2022-08-26T16:22:08;2.55;;;2.48;;
66669;SDS011;53568;52.164;4.472;2022-08-26T16:24:36;2.63;;;2.55;;
66669;SDS011;53568;52.164;4.472;2022-08-26T16:27:05;2.61;;;2.53;;
66669;SDS011;53568;52.164;4.472;2022-08-26T16:29:31;2.63;;;2.53;;
66669;SDS011;53568;52.164;4.472;2022-08-26T16:31:59;2.46;;;2.39;;
66669;SDS011;53568;52.164;4.472;2022-08-26T16:34:24;2.38;;;2.34;;
66669;SDS011;53568;52.164;4.472;2022-08-26T16:36:51;2.53;;;2.50;;
66669;SDS011;53568;52.164;4.472;2022-08-26T16:39:20;2.48;;;2.44;;
66669;SDS011;53568;52.164;4.472;2022-08-26T16:41:48;2.61;;;2.55;;
66669;SDS011;53568;52.164;4.472;2022-08-26T16:44:14;2.66;;;2.63;;
66669;SDS011;53568;52.164;4.472;2022-08-26T16:46:40;2.51;;;2.49;;
66669;SDS011;53568;52.164;4.472;2022-08-26T16:49:10;2.42;;;2.38;;
66669;SDS011;53568;52.164;4.472;2022-08-26T16:51:39;2.74;;;2.69;;
66669;SDS011;53568;52.164;4.472;2022-08-26T16:54:07;2.99;;;2.92;;
66669;SDS011;53568;52.164;4.472;2022-08-26T16:59:55;2.83;;;2.77;;
66669;SDS011;53568;52.164;4.472;2022-08-26T17:02:33;2.68;;;2.63;;
66669;SDS011;53568;52.164;4.472;2022-08-26T17:04:59;2.92;;;2.88;;
66669;SDS011;53568;52.164;4.472;2022-08-26T17:07:24;2.81;;;2.76;;
66669;SDS011;53568;52.164;4.472;2022-08-26T17:09:54;2.70;;;2.64;;
66669;SDS011;53568;52.164;4.472;2022-08-26T17:12:20;2.74;;;2.70;;
66669;SDS011;53568;52.164;4.472;2022-08-26T17:14:45;2.63;;;2.62;;
66669;SDS011;53568;52.164;4.472;2022-08-26T17:17:17;2.77;;;2.77;;
66669;SDS011;53568;52.164;4.472;2022-08-26T17:19:42;2.54;;;2.51;;
66669;SDS011;53568;52.164;4.472;2022-08-26T17:22:11;2.68;;;2.62;;
66669;SDS011;53568;52.164;4.472;2022-08-26T17:24:37;2.65;;;2.61;;
66669;SDS011;53568;52.164;4.472;2022-08-26T17:27:06;2.56;;;2.53;;
66669;SDS011;53568;52.164;4.472;2022-08-26T17:29:32;2.62;;;2.61;;
66669;SDS011;53568;52.164;4.472;2022-08-26T17:31:58;2.80;;;2.77;;
66669;SDS011;53568;52.164;4.472;2022-08-26T17:34:27;2.57;;;2.55;;
66669;SDS011;53568;52.164;4.472;2022-08-26T17:36:56;2.70;;;2.64;;
66669;SDS011;53568;52.164;4.472;2022-08-26T17:39:23;2.83;;;2.74;;
66669;SDS011;53568;52.164;4.472;2022-08-26T17:41:51;2.97;;;2.88;;
66669;SDS011;53568;52.164;4.472;2022-08-26T17:44:17;2.94;;;2.90;;
66669;SDS011;53568;52.164;4.472;2022-08-26T17:46:45;2.82;;;2.76;;
66669;SDS011;53568;52.164;4.472;2022-08-26T17:49:11;2.62;;;2.59;;
66669;SDS011;53568;52.164;4.472;2022-08-26T17:51:38;2.75;;;2.71;;
66669;SDS011;53568;52.164;4.472;2022-08-26T17:54:09;2.50;;;2.46;;
66669;SDS011;53568;52.164;4.472;2022-08-26T17:56:38;2.58;;;2.51;;
66669;SDS011;53568;52.164;4.472;2022-08-26T18:02:35;2.56;;;2.50;;
66669;SDS011;53568;52.164;4.472;2022-08-26T18:05:02;2.56;;;2.48;;
66669;SDS011;53568;52.164;4.472;2022-08-26T18:07:29;2.62;;;2.53;;
66669;SDS011;53568;52.164;4.472;2022-08-26T18:09:54;2.64;;;2.56;;
66669;SDS011;53568;52.164;4.472;2022-08-26T18:12:20;2.67;;;2.59;;